sensor_id;sensor_type;location;lat;lon;timestamp;P1;durP1;ratioP1;P2;durP2;ratioP2
15858;SDS011;8029;52.202;7.308;2023-04-24T00:00:06;0.60;;;0.60;;
15858;SDS011;8029;52.202;7.308;2023-04-24T00:02:35;0.68;;;0.68;;
15858;SDS011;8029;52.202;7.308;2023-04-24T00:05:04;0.60;;;0.60;;
15858;SDS011;8029;52.202;7.308;2023-04-24T00:07:30;0.85;;;0.73;;
15858;SDS011;8029;52.202;7.308;2023-04-24T00:09:56;0.73;;;0.73;;
15858;SDS011;8029;52.202;7.308;2023-04-24T00:12:22;0.63;;;0.63;;
15858;SDS011;8029;52.202;7.308;2023-04-24T00:14:49;30.90;;;1.80;;
15858;SDS011;8029;52.202;7.308;2023-04-24T00:17:15;0.80;;;0.80;;
15858;SDS011;8029;52.202;7.308;2023-04-24T00:19:41;0.70;;;0.70;;
15858;SDS011;8029;52.202;7.308;2023-04-24T00:22:07;0.80;;;0.80;;
15858;SDS011;8029;52.202;7.308;2023-04-24T00:24:33;1.50;;;1.40;;
15858;SDS011;8029;52.202;7.308;2023-04-24T00:26:59;2.85;;;1.90;;
15858;SDS011;8029;52.202;7.308;2023-04-24T00:29:25;2.08;;;1.63;;
15858;SDS011;8029;52.202;7.308;2023-04-24T00:31:53;0.98;;;0.93;;
15858;SDS011;8029;52.202;7.308;2023-04-24T00:34:19;1.52;;;1.42;;
15858;SDS011;8029;52.202;7.308;2023-04-24T00:36:45;0.93;;;0.93;;
15858;SDS011;8029;52.202;7.308;2023-04-24T00:39:11;1.58;;;1.48;;
15858;SDS011;8029;52.202;7.308;2023-04-24T00:41:37;1.40;;;1.30;;
15858;SDS011;8029;52.202;7.308;2023-04-24T00:44:03;1.25;;;1.15;;
15858;SDS011;8029;52.202;7.308;2023-04-24T00:46:29;1.35;;;1.27;;
15858;SDS011;8029;52.202;7.308;2023-04-24T00:48:56;0.75;;;0.75;;
15858;SDS011;8029;52.202;7.308;2023-04-24T00:51:22;2.15;;;1.23;;
15858;SDS011;8029;52.202;7.308;2023-04-24T00:53:49;1.00;;;1.00;;
15858;SDS011;8029;52.202;7.308;2023-04-24T00:56:16;1.02;;;1.02;;
15858;SDS011;8029;52.202;7.308;2023-04-24T00:58:42;0.90;;;0.90;;
15858;SDS011;8029;52.202;7.308;2023-04-24T01:01:08;1.00;;;1.00;;
15858;SDS011;8029;52.202;7.308;2023-04-24T01:03:36;0.98;;;0.98;;
15858;SDS011;8029;52.202;7.308;2023-04-24T01:06:03;6.65;;;1.48;;
15858;SDS011;8029;52.202;7.308;2023-04-24T01:08:29;0.82;;;0.82;;
15858;SDS011;8029;52.202;7.308;2023-04-24T01:10:55;1.55;;;1.45;;
15858;SDS011;8029;52.202;7.308;2023-04-24T01:13:22;6.53;;;1.17;;
15858;SDS011;8029;52.202;7.308;2023-04-24T01:15:48;1.00;;;1.00;;
15858;SDS011;8029;52.202;7.308;2023-04-24T01:18:14;1.05;;;0.75;;
15858;SDS011;8029;52.202;7.308;2023-04-24T01:20:41;0.95;;;0.95;;
15858;SDS011;8029;52.202;7.308;2023-04-24T01:23:08;1.65;;;1.52;;
15858;SDS011;8029;52.202;7.308;2023-04-24T01:25:34;1.58;;;1.20;;
15858;SDS011;8029;52.202;7.308;2023-04-24T01:28:00;1.55;;;1.45;;
15858;SDS011;8029;52.202;7.308;2023-04-24T01:30:26;1.30;;;1.20;;
15858;SDS011;8029;52.202;7.308;2023-04-24T01:32:52;1.10;;;1.10;;
15858;SDS011;8029;52.202;7.308;2023-04-24T01:35:19;0.75;;;0.75;;
15858;SDS011;8029;52.202;7.308;2023-04-24T01:37:45;1.20;;;1.10;;
15858;SDS011;8029;52.202;7.308;2023-04-24T01:40:11;2.63;;;1.73;;
15858;SDS011;8029;52.202;7.308;2023-04-24T01:42:37;2.10;;;1.55;;
15858;SDS011;8029;52.202;7.308;2023-04-24T01:45:04;1.50;;;1.40;;
15858;SDS011;8029;52.202;7.308;2023-04-24T01:47:31;1.42;;;1.33;;
15858;SDS011;8029;52.202;7.308;2023-04-24T01:49:57;4.65;;;2.03;;
15858;SDS011;8029;52.202;7.308;2023-04-24T01:52:23;1.45;;;1.35;;
15858;SDS011;8029;52.202;7.308;2023-04-24T01:54:49;1.67;;;1.58;;
15858;SDS011;8029;52.202;7.308;2023-04-24T01:57:16;1.85;;;1.75;;
15858;SDS011;8029;52.202;7.308;2023-04-24T01:59:42;1.95;;;1.80;;
15858;SDS011;8029;52.202;7.308;2023-04-24T02:02:08;2.00;;;1.80;;
15858;SDS011;8029;52.202;7.308;2023-04-24T02:04:34;2.47;;;1.83;;
15858;SDS011;8029;52.202;7.308;2023-04-24T02:07:00;1.92;;;1.73;;
15858;SDS011;8029;52.202;7.308;2023-04-24T02:09:26;2.92;;;2.60;;
15858;SDS011;8029;52.202;7.308;2023-04-24T02:11:52;1.60;;;1.50;;
15858;SDS011;8029;52.202;7.308;2023-04-24T02:14:17;3.72;;;1.80;;
15858;SDS011;8029;52.202;7.308;2023-04-24T02:16:43;1.73;;;1.48;;
15858;SDS011;8029;52.202;7.308;2023-04-24T02:19:10;2.22;;;1.73;;
15858;SDS011;8029;52.202;7.308;2023-04-24T02:21:36;2.33;;;2.13;;
15858;SDS011;8029;52.202;7.308;2023-04-24T02:24:02;2.53;;;2.25;;
15858;SDS011;8029;52.202;7.308;2023-04-24T02:26:28;2.78;;;2.47;;
15858;SDS011;8029;52.202;7.308;2023-04-24T02:28:56;2.78;;;2.13;;
15858;SDS011;8029;52.202;7.308;2023-04-24T02:31:22;4.40;;;2.28;;
15858;SDS011;8029;52.202;7.308;2023-04-24T02:33:48;2.28;;;2.08;;
15858;SDS011;8029;52.202;7.308;2023-04-24T02:36:14;2.30;;;2.10;;
15858;SDS011;8029;52.202;7.308;2023-04-24T02:38:40;2.80;;;2.25;;
15858;SDS011;8029;52.202;7.308;2023-04-24T02:41:06;3.67;;;2.78;;
15858;SDS011;8029;52.202;7.308;2023-04-24T02:43:32;2.45;;;2.22;;
15858;SDS011;8029;52.202;7.308;2023-04-24T02:45:58;2.72;;;2.53;;
15858;SDS011;8029;52.202;7.308;2023-04-24T02:48:24;3.15;;;2.50;;
15858;SDS011;8029;52.202;7.308;2023-04-24T02:50:50;2.92;;;1.88;;
15858;SDS011;8029;52.202;7.308;2023-04-24T02:53:16;3.75;;;2.60;;
15858;SDS011;8029;52.202;7.308;2023-04-24T02:55:42;3.25;;;2.60;;
15858;SDS011;8029;52.202;7.308;2023-04-24T02:58:08;2.97;;;2.60;;
15858;SDS011;8029;52.202;7.308;2023-04-24T03:00:35;2.47;;;2.25;;
15858;SDS011;8029;52.202;7.308;2023-04-24T03:03:01;7.30;;;3.35;;
15858;SDS011;8029;52.202;7.308;2023-04-24T03:05:27;3.83;;;3.53;;
15858;SDS011;8029;52.202;7.308;2023-04-24T03:07:53;4.20;;;3.40;;
15858;SDS011;8029;52.202;7.308;2023-04-24T03:10:19;4.40;;;3.25;;
15858;SDS011;8029;52.202;7.308;2023-04-24T03:12:47;4.35;;;3.95;;
15858;SDS011;8029;52.202;7.308;2023-04-24T03:15:13;2.83;;;2.45;;
15858;SDS011;8029;52.202;7.308;2023-04-24T03:17:39;2.90;;;2.70;;
15858;SDS011;8029;52.202;7.308;2023-04-24T03:20:06;5.10;;;3.50;;
15858;SDS011;8029;52.202;7.308;2023-04-24T03:22:33;3.65;;;3.25;;
15858;SDS011;8029;52.202;7.308;2023-04-24T03:24:59;4.93;;;3.45;;
15858;SDS011;8029;52.202;7.308;2023-04-24T03:27:25;4.72;;;3.67;;
15858;SDS011;8029;52.202;7.308;2023-04-24T03:29:51;6.05;;;4.97;;
15858;SDS011;8029;52.202;7.308;2023-04-24T03:32:20;6.47;;;4.07;;
15858;SDS011;8029;52.202;7.308;2023-04-24T03:34:46;3.90;;;3.20;;
15858;SDS011;8029;52.202;7.308;2023-04-24T03:37:12;5.32;;;3.60;;
15858;SDS011;8029;52.202;7.308;2023-04-24T03:39:38;7.13;;;4.25;;
15858;SDS011;8029;52.202;7.308;2023-04-24T03:42:04;6.47;;;3.72;;
15858;SDS011;8029;52.202;7.308;2023-04-24T03:44:30;2.80;;;2.42;;
15858;SDS011;8029;52.202;7.308;2023-04-24T03:46:57;3.72;;;3.22;;
15858;SDS011;8029;52.202;7.308;2023-04-24T03:49:23;4.10;;;3.40;;
15858;SDS011;8029;52.202;7.308;2023-04-24T03:51:49;4.88;;;4.32;;
15858;SDS011;8029;52.202;7.308;2023-04-24T03:54:15;5.90;;;3.50;;
15858;SDS011;8029;52.202;7.308;2023-04-24T03:56:41;7.93;;;4.65;;
15858;SDS011;8029;52.202;7.308;2023-04-24T03:59:07;7.43;;;4.53;;
15858;SDS011;8029;52.202;7.308;2023-04-24T04:01:33;7.18;;;4.90;;
15858;SDS011;8029;52.202;7.308;2023-04-24T04:04:02;6.10;;;4.63;;
15858;SDS011;8029;52.202;7.308;2023-04-24T04:06:28;5.25;;;4.45;;
15858;SDS011;8029;52.202;7.308;2023-04-24T04:08:55;3.38;;;3.17;;
15858;SDS011;8029;52.202;7.308;2023-04-24T04:11:21;5.03;;;4.28;;
15858;SDS011;8029;52.202;7.308;2023-04-24T04:13:47;6.45;;;5.18;;
15858;SDS011;8029;52.202;7.308;2023-04-24T04:16:13;4.40;;;4.00;;
15858;SDS011;8029;52.202;7.308;2023-04-24T04:18:41;6.63;;;4.15;;
15858;SDS011;8029;52.202;7.308;2023-04-24T04:21:07;4.97;;;4.47;;
15858;SDS011;8029;52.202;7.308;2023-04-24T04:23:33;6.38;;;4.95;;
15858;SDS011;8029;52.202;7.308;2023-04-24T04:25:59;5.18;;;4.72;;
15858;SDS011;8029;52.202;7.308;2023-04-24T04:28:26;6.10;;;5.30;;
15858;SDS011;8029;52.202;7.308;2023-04-24T04:30:52;4.63;;;3.75;;
15858;SDS011;8029;52.202;7.308;2023-04-24T04:33:22;4.85;;;4.40;;
15858;SDS011;8029;52.202;7.308;2023-04-24T04:35:48;7.55;;;4.78;;
15858;SDS011;8029;52.202;7.308;2023-04-24T04:38:15;9.40;;;6.75;;
15858;SDS011;8029;52.202;7.308;2023-04-24T04:40:42;4.90;;;4.38;;
15858;SDS011;8029;52.202;7.308;2023-04-24T04:43:08;4.45;;;3.97;;
15858;SDS011;8029;52.202;7.308;2023-04-24T04:45:35;5.18;;;4.25;;
15858;SDS011;8029;52.202;7.308;2023-04-24T04:48:01;4.88;;;4.38;;
15858;SDS011;8029;52.202;7.308;2023-04-24T04:50:28;6.85;;;5.55;;
15858;SDS011;8029;52.202;7.308;2023-04-24T04:52:54;6.13;;;5.32;;
15858;SDS011;8029;52.202;7.308;2023-04-24T04:55:20;8.07;;;4.15;;
15858;SDS011;8029;52.202;7.308;2023-04-24T04:57:46;5.32;;;4.60;;
15858;SDS011;8029;52.202;7.308;2023-04-24T05:00:13;5.63;;;4.63;;
15858;SDS011;8029;52.202;7.308;2023-04-24T05:02:39;8.45;;;4.93;;
15858;SDS011;8029;52.202;7.308;2023-04-24T05:05:05;6.95;;;5.63;;
15858;SDS011;8029;52.202;7.308;2023-04-24T05:07:32;6.53;;;5.55;;
15858;SDS011;8029;52.202;7.308;2023-04-24T05:09:58;6.18;;;5.13;;
15858;SDS011;8029;52.202;7.308;2023-04-24T05:12:24;5.82;;;5.18;;
15858;SDS011;8029;52.202;7.308;2023-04-24T05:14:50;5.07;;;4.45;;
15858;SDS011;8029;52.202;7.308;2023-04-24T05:17:16;7.03;;;5.88;;
15858;SDS011;8029;52.202;7.308;2023-04-24T05:19:43;4.95;;;4.50;;
15858;SDS011;8029;52.202;7.308;2023-04-24T05:22:09;5.18;;;4.68;;
15858;SDS011;8029;52.202;7.308;2023-04-24T05:24:36;6.47;;;4.22;;
15858;SDS011;8029;52.202;7.308;2023-04-24T05:27:02;6.72;;;4.93;;
15858;SDS011;8029;52.202;7.308;2023-04-24T05:29:29;4.55;;;4.15;;
15858;SDS011;8029;52.202;7.308;2023-04-24T05:31:58;6.05;;;4.97;;
15858;SDS011;8029;52.202;7.308;2023-04-24T05:34:25;5.88;;;5.28;;
15858;SDS011;8029;52.202;7.308;2023-04-24T05:36:51;7.40;;;5.95;;
15858;SDS011;8029;52.202;7.308;2023-04-24T05:39:17;8.73;;;5.35;;
15858;SDS011;8029;52.202;7.308;2023-04-24T05:41:44;6.55;;;5.32;;
15858;SDS011;8029;52.202;7.308;2023-04-24T05:44:10;6.82;;;4.28;;
15858;SDS011;8029;52.202;7.308;2023-04-24T05:46:36;5.55;;;4.32;;
15858;SDS011;8029;52.202;7.308;2023-04-24T05:49:02;5.78;;;5.18;;
15858;SDS011;8029;52.202;7.308;2023-04-24T05:51:28;7.68;;;5.32;;
15858;SDS011;8029;52.202;7.308;2023-04-24T05:53:55;8.18;;;5.30;;
15858;SDS011;8029;52.202;7.308;2023-04-24T05:56:21;10.38;;;5.53;;
15858;SDS011;8029;52.202;7.308;2023-04-24T05:58:47;8.15;;;6.20;;
15858;SDS011;8029;52.202;7.308;2023-04-24T06:01:13;5.00;;;4.50;;
15858;SDS011;8029;52.202;7.308;2023-04-24T06:03:40;5.72;;;5.13;;
15858;SDS011;8029;52.202;7.308;2023-04-24T06:06:06;5.90;;;4.63;;
15858;SDS011;8029;52.202;7.308;2023-04-24T06:08:32;8.00;;;4.88;;
15858;SDS011;8029;52.202;7.308;2023-04-24T06:10:58;11.32;;;5.38;;
15858;SDS011;8029;52.202;7.308;2023-04-24T06:13:24;5.22;;;4.72;;
15858;SDS011;8029;52.202;7.308;2023-04-24T06:15:50;10.65;;;5.45;;
15858;SDS011;8029;52.202;7.308;2023-04-24T06:18:16;7.93;;;5.43;;
15858;SDS011;8029;52.202;7.308;2023-04-24T06:20:42;4.78;;;4.28;;
15858;SDS011;8029;52.202;7.308;2023-04-24T06:23:08;5.65;;;4.88;;
15858;SDS011;8029;52.202;7.308;2023-04-24T06:25:34;5.07;;;4.55;;
15858;SDS011;8029;52.202;7.308;2023-04-24T06:28:00;6.00;;;4.70;;
15858;SDS011;8029;52.202;7.308;2023-04-24T06:30:27;7.32;;;5.28;;
15858;SDS011;8029;52.202;7.308;2023-04-24T06:32:53;10.07;;;4.93;;
15858;SDS011;8029;52.202;7.308;2023-04-24T06:35:19;4.78;;;3.85;;
15858;SDS011;8029;52.202;7.308;2023-04-24T06:37:45;7.32;;;4.82;;
15858;SDS011;8029;52.202;7.308;2023-04-24T06:40:12;9.40;;;5.43;;
15858;SDS011;8029;52.202;7.308;2023-04-24T06:42:38;4.43;;;3.92;;
15858;SDS011;8029;52.202;7.308;2023-04-24T06:45:04;16.23;;;4.90;;
15858;SDS011;8029;52.202;7.308;2023-04-24T06:47:31;5.30;;;4.80;;
15858;SDS011;8029;52.202;7.308;2023-04-24T06:49:57;7.10;;;5.75;;
15858;SDS011;8029;52.202;7.308;2023-04-24T06:52:23;6.10;;;4.35;;
15858;SDS011;8029;52.202;7.308;2023-04-24T06:54:49;5.05;;;4.55;;
15858;SDS011;8029;52.202;7.308;2023-04-24T06:57:15;4.10;;;3.70;;
15858;SDS011;8029;52.202;7.308;2023-04-24T06:59:41;4.78;;;4.28;;
15858;SDS011;8029;52.202;7.308;2023-04-24T07:02:07;6.60;;;4.80;;
15858;SDS011;8029;52.202;7.308;2023-04-24T07:04:33;6.75;;;4.32;;
15858;SDS011;8029;52.202;7.308;2023-04-24T07:06:59;9.02;;;4.53;;
15858;SDS011;8029;52.202;7.308;2023-04-24T07:09:26;4.20;;;3.80;;
15858;SDS011;8029;52.202;7.308;2023-04-24T07:11:52;4.47;;;3.30;;
15858;SDS011;8029;52.202;7.308;2023-04-24T07:14:18;5.97;;;4.18;;
15858;SDS011;8029;52.202;7.308;2023-04-24T07:16:45;3.85;;;3.28;;
15858;SDS011;8029;52.202;7.308;2023-04-24T07:19:12;3.03;;;2.70;;
15858;SDS011;8029;52.202;7.308;2023-04-24T07:21:38;3.47;;;3.20;;
15858;SDS011;8029;52.202;7.308;2023-04-24T07:24:04;4.80;;;3.42;;
15858;SDS011;8029;52.202;7.308;2023-04-24T07:26:34;3.17;;;2.97;;
15858;SDS011;8029;52.202;7.308;2023-04-24T07:29:00;4.32;;;3.30;;
15858;SDS011;8029;52.202;7.308;2023-04-24T07:31:26;3.15;;;2.88;;
15858;SDS011;8029;52.202;7.308;2023-04-24T07:33:52;2.78;;;2.53;;
15858;SDS011;8029;52.202;7.308;2023-04-24T07:36:18;3.53;;;3.22;;
15858;SDS011;8029;52.202;7.308;2023-04-24T07:38:45;6.30;;;3.33;;
15858;SDS011;8029;52.202;7.308;2023-04-24T07:41:12;2.40;;;2.20;;
15858;SDS011;8029;52.202;7.308;2023-04-24T07:43:38;2.72;;;2.53;;
15858;SDS011;8029;52.202;7.308;2023-04-24T07:46:04;3.20;;;2.92;;
15858;SDS011;8029;52.202;7.308;2023-04-24T07:48:31;3.47;;;3.05;;
15858;SDS011;8029;52.202;7.308;2023-04-24T07:50:57;3.20;;;2.90;;
15858;SDS011;8029;52.202;7.308;2023-04-24T07:53:23;2.42;;;2.25;;
15858;SDS011;8029;52.202;7.308;2023-04-24T07:55:49;3.53;;;3.05;;
15858;SDS011;8029;52.202;7.308;2023-04-24T07:58:15;2.50;;;2.30;;
15858;SDS011;8029;52.202;7.308;2023-04-24T08:00:41;4.03;;;3.08;;
15858;SDS011;8029;52.202;7.308;2023-04-24T08:03:07;2.60;;;2.17;;
15858;SDS011;8029;52.202;7.308;2023-04-24T08:05:32;7.95;;;2.80;;
15858;SDS011;8029;52.202;7.308;2023-04-24T08:07:58;2.15;;;1.85;;
15858;SDS011;8029;52.202;7.308;2023-04-24T08:10:25;2.97;;;2.38;;
15858;SDS011;8029;52.202;7.308;2023-04-24T08:12:51;1.70;;;1.60;;
15858;SDS011;8029;52.202;7.308;2023-04-24T08:15:17;2.10;;;1.88;;
15858;SDS011;8029;52.202;7.308;2023-04-24T08:17:43;1.85;;;1.75;;
15858;SDS011;8029;52.202;7.308;2023-04-24T08:20:09;1.92;;;1.83;;
15858;SDS011;8029;52.202;7.308;2023-04-24T08:22:38;5.78;;;2.05;;
15858;SDS011;8029;52.202;7.308;2023-04-24T08:25:05;2.05;;;1.92;;
15858;SDS011;8029;52.202;7.308;2023-04-24T08:27:31;2.88;;;2.22;;
15858;SDS011;8029;52.202;7.308;2023-04-24T08:29:57;1.70;;;1.60;;
15858;SDS011;8029;52.202;7.308;2023-04-24T08:32:26;2.38;;;2.17;;
15858;SDS011;8029;52.202;7.308;2023-04-24T08:34:55;3.83;;;2.78;;
15858;SDS011;8029;52.202;7.308;2023-04-24T08:37:25;9.18;;;2.38;;
15858;SDS011;8029;52.202;7.308;2023-04-24T08:39:52;2.17;;;2.03;;
15858;SDS011;8029;52.202;7.308;2023-04-24T08:42:18;4.07;;;2.30;;
15858;SDS011;8029;52.202;7.308;2023-04-24T08:44:44;2.90;;;2.60;;
15858;SDS011;8029;52.202;7.308;2023-04-24T08:47:10;3.28;;;2.67;;
15858;SDS011;8029;52.202;7.308;2023-04-24T08:49:37;2.65;;;2.40;;
15858;SDS011;8029;52.202;7.308;2023-04-24T08:52:03;3.72;;;3.33;;
15858;SDS011;8029;52.202;7.308;2023-04-24T08:54:30;2.83;;;2.60;;
15858;SDS011;8029;52.202;7.308;2023-04-24T08:56:58;2.55;;;2.35;;
15858;SDS011;8029;52.202;7.308;2023-04-24T08:59:27;2.75;;;2.42;;
15858;SDS011;8029;52.202;7.308;2023-04-24T09:01:53;2.20;;;2.03;;
15858;SDS011;8029;52.202;7.308;2023-04-24T09:04:20;2.45;;;2.25;;
15858;SDS011;8029;52.202;7.308;2023-04-24T09:06:49;3.58;;;3.25;;
15858;SDS011;8029;52.202;7.308;2023-04-24T09:09:15;2.83;;;2.63;;
15858;SDS011;8029;52.202;7.308;2023-04-24T09:11:42;3.10;;;2.85;;
15858;SDS011;8029;52.202;7.308;2023-04-24T09:14:09;2.05;;;1.95;;
15858;SDS011;8029;52.202;7.308;2023-04-24T09:16:35;7.00;;;3.22;;
15858;SDS011;8029;52.202;7.308;2023-04-24T09:19:01;2.28;;;2.13;;
15858;SDS011;8029;52.202;7.308;2023-04-24T09:21:31;2.70;;;2.00;;
15858;SDS011;8029;52.202;7.308;2023-04-24T09:23:58;2.47;;;2.25;;
15858;SDS011;8029;52.202;7.308;2023-04-24T09:26:25;2.22;;;2.08;;
15858;SDS011;8029;52.202;7.308;2023-04-24T09:28:51;2.25;;;1.90;;
15858;SDS011;8029;52.202;7.308;2023-04-24T09:31:19;3.60;;;2.75;;
15858;SDS011;8029;52.202;7.308;2023-04-24T09:33:53;2.33;;;2.13;;
15858;SDS011;8029;52.202;7.308;2023-04-24T09:36:26;2.05;;;1.85;;
15858;SDS011;8029;52.202;7.308;2023-04-24T09:38:53;2.50;;;2.28;;
15858;SDS011;8029;52.202;7.308;2023-04-24T09:41:19;2.15;;;1.80;;
15858;SDS011;8029;52.202;7.308;2023-04-24T09:43:45;4.07;;;2.85;;
15858;SDS011;8029;52.202;7.308;2023-04-24T09:46:11;1.83;;;1.73;;
15858;SDS011;8029;52.202;7.308;2023-04-24T09:48:38;2.05;;;1.80;;
15858;SDS011;8029;52.202;7.308;2023-04-24T09:51:04;1.52;;;1.42;;
15858;SDS011;8029;52.202;7.308;2023-04-24T09:53:36;2.25;;;1.73;;
15858;SDS011;8029;52.202;7.308;2023-04-24T09:56:03;1.50;;;1.40;;
15858;SDS011;8029;52.202;7.308;2023-04-24T09:58:29;1.67;;;1.58;;
15858;SDS011;8029;52.202;7.308;2023-04-24T10:00:55;1.65;;;1.55;;
15858;SDS011;8029;52.202;7.308;2023-04-24T10:03:25;1.95;;;1.73;;
15858;SDS011;8029;52.202;7.308;2023-04-24T10:05:52;2.40;;;2.20;;
15858;SDS011;8029;52.202;7.308;2023-04-24T10:08:18;1.35;;;1.25;;
15858;SDS011;8029;52.202;7.308;2023-04-24T10:10:45;1.25;;;1.15;;
15858;SDS011;8029;52.202;7.308;2023-04-24T10:13:12;10.00;;;1.80;;
15858;SDS011;8029;52.202;7.308;2023-04-24T10:15:38;1.73;;;1.58;;
15858;SDS011;8029;52.202;7.308;2023-04-24T10:18:05;1.73;;;1.63;;
15858;SDS011;8029;52.202;7.308;2023-04-24T10:20:31;1.95;;;1.85;;
15858;SDS011;8029;52.202;7.308;2023-04-24T10:22:58;2.20;;;2.00;;
15858;SDS011;8029;52.202;7.308;2023-04-24T10:25:25;2.83;;;2.58;;
15858;SDS011;8029;52.202;7.308;2023-04-24T10:27:52;0.10;;;0.10;;
15858;SDS011;8029;52.202;7.308;2023-04-24T10:30:22;0.10;;;0.10;;
15858;SDS011;8029;52.202;7.308;2023-04-24T10:32:48;0.10;;;0.10;;
15858;SDS011;8029;52.202;7.308;2023-04-24T10:35:14;0.10;;;0.10;;
15858;SDS011;8029;52.202;7.308;2023-04-24T10:37:44;0.10;;;0.10;;
15858;SDS011;8029;52.202;7.308;2023-04-24T10:40:11;0.10;;;0.10;;
15858;SDS011;8029;52.202;7.308;2023-04-24T10:42:40;0.10;;;0.10;;
15858;SDS011;8029;52.202;7.308;2023-04-24T10:45:19;0.10;;;0.10;;
15858;SDS011;8029;52.202;7.308;2023-04-24T10:47:54;0.10;;;0.10;;
15858;SDS011;8029;52.202;7.308;2023-04-24T10:50:22;0.10;;;0.10;;
15858;SDS011;8029;52.202;7.308;2023-04-24T10:52:48;0.10;;;0.10;;
15858;SDS011;8029;52.202;7.308;2023-04-24T10:58:04;0.10;;;0.10;;
15858;SDS011;8029;52.202;7.308;2023-04-24T11:00:30;0.10;;;0.10;;
15858;SDS011;8029;52.202;7.308;2023-04-24T11:02:56;0.10;;;0.10;;
15858;SDS011;8029;52.202;7.308;2023-04-24T11:05:23;0.10;;;0.10;;
15858;SDS011;8029;52.202;7.308;2023-04-24T11:08:12;0.10;;;0.10;;
15858;SDS011;8029;52.202;7.308;2023-04-24T11:10:39;0.10;;;0.10;;
15858;SDS011;8029;52.202;7.308;2023-04-24T11:13:06;0.10;;;0.10;;
15858;SDS011;8029;52.202;7.308;2023-04-24T11:15:32;0.10;;;0.10;;
15858;SDS011;8029;52.202;7.308;2023-04-24T11:17:58;0.10;;;0.10;;
15858;SDS011;8029;52.202;7.308;2023-04-24T11:20:25;0.10;;;0.10;;
15858;SDS011;8029;52.202;7.308;2023-04-24T11:22:52;0.10;;;0.10;;
15858;SDS011;8029;52.202;7.308;2023-04-24T11:25:19;0.10;;;0.10;;
15858;SDS011;8029;52.202;7.308;2023-04-24T11:27:47;0.10;;;0.10;;
15858;SDS011;8029;52.202;7.308;2023-04-24T11:30:17;0.10;;;0.10;;
15858;SDS011;8029;52.202;7.308;2023-04-24T11:32:43;0.10;;;0.10;;
15858;SDS011;8029;52.202;7.308;2023-04-24T11:35:22;0.10;;;0.10;;
15858;SDS011;8029;52.202;7.308;2023-04-24T11:37:53;0.10;;;0.10;;
15858;SDS011;8029;52.202;7.308;2023-04-24T11:40:20;0.10;;;0.10;;
15858;SDS011;8029;52.202;7.308;2023-04-24T11:42:48;0.10;;;0.10;;
15858;SDS011;8029;52.202;7.308;2023-04-24T11:45:15;0.10;;;0.10;;
15858;SDS011;8029;52.202;7.308;2023-04-24T11:47:41;0.10;;;0.10;;
15858;SDS011;8029;52.202;7.308;2023-04-24T11:50:09;0.10;;;0.10;;
15858;SDS011;8029;52.202;7.308;2023-04-24T11:52:39;0.10;;;0.10;;
15858;SDS011;8029;52.202;7.308;2023-04-24T11:55:27;0.10;;;0.10;;
15858;SDS011;8029;52.202;7.308;2023-04-24T11:57:56;0.00;;;0.00;;
15858;SDS011;8029;52.202;7.308;2023-04-24T12:02:48;0.10;;;0.10;;
15858;SDS011;8029;52.202;7.308;2023-04-24T12:07:46;0.10;;;0.10;;
15858;SDS011;8029;52.202;7.308;2023-04-24T12:10:13;0.00;;;0.00;;
15858;SDS011;8029;52.202;7.308;2023-04-24T12:12:39;0.10;;;0.10;;
15858;SDS011;8029;52.202;7.308;2023-04-24T12:15:08;0.10;;;0.10;;
15858;SDS011;8029;52.202;7.308;2023-04-24T12:17:35;0.10;;;0.10;;
15858;SDS011;8029;52.202;7.308;2023-04-24T12:20:05;0.10;;;0.10;;
15858;SDS011;8029;52.202;7.308;2023-04-24T12:22:49;0.10;;;0.10;;
15858;SDS011;8029;52.202;7.308;2023-04-24T12:25:15;0.10;;;0.10;;
15858;SDS011;8029;52.202;7.308;2023-04-24T12:27:41;0.05;;;0.05;;
15858;SDS011;8029;52.202;7.308;2023-04-24T12:30:10;0.10;;;0.10;;
15858;SDS011;8029;52.202;7.308;2023-04-24T12:32:40;0.10;;;0.10;;
15858;SDS011;8029;52.202;7.308;2023-04-24T12:35:06;0.00;;;0.00;;
15858;SDS011;8029;52.202;7.308;2023-04-24T12:37:33;0.10;;;0.10;;
15858;SDS011;8029;52.202;7.308;2023-04-24T12:42:29;0.10;;;0.10;;
15858;SDS011;8029;52.202;7.308;2023-04-24T12:44:56;0.10;;;0.10;;
15858;SDS011;8029;52.202;7.308;2023-04-24T12:47:23;0.10;;;0.10;;
15858;SDS011;8029;52.202;7.308;2023-04-24T12:49:50;0.00;;;0.00;;
15858;SDS011;8029;52.202;7.308;2023-04-24T12:52:17;0.10;;;0.10;;
15858;SDS011;8029;52.202;7.308;2023-04-24T12:54:44;0.10;;;0.10;;
15858;SDS011;8029;52.202;7.308;2023-04-24T12:57:10;0.10;;;0.10;;
15858;SDS011;8029;52.202;7.308;2023-04-24T12:59:36;0.10;;;0.10;;
15858;SDS011;8029;52.202;7.308;2023-04-24T13:02:04;0.10;;;0.10;;
15858;SDS011;8029;52.202;7.308;2023-04-24T13:04:30;0.00;;;0.00;;
15858;SDS011;8029;52.202;7.308;2023-04-24T13:06:56;0.10;;;0.10;;
15858;SDS011;8029;52.202;7.308;2023-04-24T13:09:22;0.10;;;0.10;;
15858;SDS011;8029;52.202;7.308;2023-04-24T13:11:48;0.00;;;0.00;;
15858;SDS011;8029;52.202;7.308;2023-04-24T13:14:14;0.10;;;0.10;;
15858;SDS011;8029;52.202;7.308;2023-04-24T13:16:40;0.10;;;0.10;;
15858;SDS011;8029;52.202;7.308;2023-04-24T13:19:06;0.10;;;0.10;;
15858;SDS011;8029;52.202;7.308;2023-04-24T13:21:32;0.10;;;0.10;;
15858;SDS011;8029;52.202;7.308;2023-04-24T13:23:58;0.10;;;0.10;;
15858;SDS011;8029;52.202;7.308;2023-04-24T13:26:24;0.10;;;0.10;;
15858;SDS011;8029;52.202;7.308;2023-04-24T13:28:51;0.10;;;0.10;;
15858;SDS011;8029;52.202;7.308;2023-04-24T13:31:16;0.10;;;0.10;;
15858;SDS011;8029;52.202;7.308;2023-04-24T13:33:42;0.10;;;0.10;;
15858;SDS011;8029;52.202;7.308;2023-04-24T13:36:08;0.10;;;0.10;;
15858;SDS011;8029;52.202;7.308;2023-04-24T13:38:34;0.10;;;0.10;;
15858;SDS011;8029;52.202;7.308;2023-04-24T13:41:00;0.10;;;0.10;;
15858;SDS011;8029;52.202;7.308;2023-04-24T13:43:26;0.10;;;0.10;;
15858;SDS011;8029;52.202;7.308;2023-04-24T13:45:52;0.10;;;0.10;;
15858;SDS011;8029;52.202;7.308;2023-04-24T13:48:18;0.10;;;0.10;;
15858;SDS011;8029;52.202;7.308;2023-04-24T13:50:45;0.10;;;0.10;;
15858;SDS011;8029;52.202;7.308;2023-04-24T13:53:13;0.00;;;0.00;;
15858;SDS011;8029;52.202;7.308;2023-04-24T13:55:39;0.10;;;0.10;;
15858;SDS011;8029;52.202;7.308;2023-04-24T13:58:05;0.10;;;0.10;;
15858;SDS011;8029;52.202;7.308;2023-04-24T14:00:31;0.00;;;0.00;;
15858;SDS011;8029;52.202;7.308;2023-04-24T14:02:57;0.10;;;0.10;;
15858;SDS011;8029;52.202;7.308;2023-04-24T14:05:23;0.10;;;0.10;;
15858;SDS011;8029;52.202;7.308;2023-04-24T14:07:50;0.10;;;0.10;;
15858;SDS011;8029;52.202;7.308;2023-04-24T14:10:16;0.80;;;0.80;;
15858;SDS011;8029;52.202;7.308;2023-04-24T14:12:42;0.73;;;0.73;;
15858;SDS011;8029;52.202;7.308;2023-04-24T14:15:08;3.83;;;1.60;;
15858;SDS011;8029;52.202;7.308;2023-04-24T14:17:35;1.58;;;1.48;;
15858;SDS011;8029;52.202;7.308;2023-04-24T14:20:01;1.13;;;1.13;;
15858;SDS011;8029;52.202;7.308;2023-04-24T14:22:28;1.33;;;1.25;;
15858;SDS011;8029;52.202;7.308;2023-04-24T14:24:55;0.68;;;0.68;;
15858;SDS011;8029;52.202;7.308;2023-04-24T14:27:21;1.75;;;1.65;;
15858;SDS011;8029;52.202;7.308;2023-04-24T14:29:47;2.05;;;1.48;;
15858;SDS011;8029;52.202;7.308;2023-04-24T14:32:12;1.25;;;0.95;;
15858;SDS011;8029;52.202;7.308;2023-04-24T14:34:40;0.80;;;0.75;;
15858;SDS011;8029;52.202;7.308;2023-04-24T14:37:06;0.75;;;0.68;;
15858;SDS011;8029;52.202;7.308;2023-04-24T14:39:32;5.20;;;1.45;;
15858;SDS011;8029;52.202;7.308;2023-04-24T14:42:00;1.30;;;1.20;;
15858;SDS011;8029;52.202;7.308;2023-04-24T14:44:26;1.55;;;1.00;;
15858;SDS011;8029;52.202;7.308;2023-04-24T14:46:52;1.60;;;1.17;;
15858;SDS011;8029;52.202;7.308;2023-04-24T14:49:18;0.75;;;0.75;;
15858;SDS011;8029;52.202;7.308;2023-04-24T14:51:44;1.05;;;0.98;;
15858;SDS011;8029;52.202;7.308;2023-04-24T14:54:10;1.95;;;1.02;;
15858;SDS011;8029;52.202;7.308;2023-04-24T14:56:36;1.23;;;1.13;;
15858;SDS011;8029;52.202;7.308;2023-04-24T14:59:04;1.40;;;1.30;;
15858;SDS011;8029;52.202;7.308;2023-04-24T15:01:30;1.38;;;0.88;;
15858;SDS011;8029;52.202;7.308;2023-04-24T15:03:56;1.25;;;1.05;;
15858;SDS011;8029;52.202;7.308;2023-04-24T15:06:22;4.60;;;1.17;;